sensor_id;sensor_type;location;lat;lon;timestamp;pressure;altitude;pressure_sealevel;temperature;humidity
51603;BME280;37954;51.980;5.850;2023-03-04T00:01:49;102291.69;;;7.27;64.30
51603;BME280;37954;51.980;5.850;2023-03-04T00:06:05;102296.00;;;7.20;64.50
51603;BME280;37954;51.980;5.850;2023-03-04T00:10:17;102290.97;;;7.09;64.25
51603;BME280;37954;51.980;5.850;2023-03-04T00:14:29;102285.81;;;7.15;64.58
51603;BME280;37954;51.980;5.850;2023-03-04T00:18:41;102289.16;;;7.17;64.27
51603;BME280;37954;51.980;5.850;2023-03-04T00:22:52;102299.69;;;7.19;64.64
51603;BME280;37954;51.980;5.850;2023-03-04T00:27:04;102306.88;;;7.18;64.63
51603;BME280;37954;51.980;5.850;2023-03-04T00:31:16;102289.78;;;7.11;64.61
51603;BME280;37954;51.980;5.850;2023-03-04T00:35:27;102284.44;;;7.11;64.99
51603;BME280;37954;51.980;5.850;2023-03-04T00:39:39;102295.81;;;7.13;64.48
51603;BME280;37954;51.980;5.850;2023-03-04T00:43:51;102279.78;;;7.05;64.72
51603;BME280;37954;51.980;5.850;2023-03-04T00:48:02;102272.38;;;6.91;65.50
51603;BME280;37954;51.980;5.850;2023-03-04T00:52:14;102273.72;;;6.95;65.49
51603;BME280;37954;51.980;5.850;2023-03-04T00:56:26;102293.13;;;7.05;66.18
51603;BME280;37954;51.980;5.850;2023-03-04T01:00:38;102290.97;;;7.09;65.33
51603;BME280;37954;51.980;5.850;2023-03-04T01:04:50;102282.44;;;7.05;65.72
51603;BME280;37954;51.980;5.850;2023-03-04T01:09:01;102269.25;;;7.04;65.55
51603;BME280;37954;51.980;5.850;2023-03-04T01:13:13;102289.63;;;7.13;65.86
51603;BME280;37954;51.980;5.850;2023-03-04T01:17:26;102283.28;;;7.14;65.94
51603;BME280;37954;51.980;5.850;2023-03-04T01:21:38;102284.13;;;7.06;65.81
51603;BME280;37954;51.980;5.850;2023-03-04T01:25:49;102272.44;;;7.07;66.05
51603;BME280;37954;51.980;5.850;2023-03-04T01:30:03;102276.94;;;7.07;65.95
51603;BME280;37954;51.980;5.850;2023-03-04T01:34:15;102266.56;;;7.04;66.10
51603;BME280;37954;51.980;5.850;2023-03-04T01:38:28;102263.75;;;7.05;66.14
51603;BME280;37954;51.980;5.850;2023-03-04T01:42:40;102267.25;;;7.06;66.26
51603;BME280;37954;51.980;5.850;2023-03-04T01:46:53;102257.19;;;6.99;66.76
51603;BME280;37954;51.980;5.850;2023-03-04T01:51:13;102252.84;;;6.98;66.50
51603;BME280;37954;51.980;5.850;2023-03-04T01:55:28;102250.50;;;6.95;66.70
51603;BME280;37954;51.980;5.850;2023-03-04T01:59:40;102248.03;;;7.02;66.70
51603;BME280;37954;51.980;5.850;2023-03-04T02:03:51;102246.84;;;6.96;67.40
51603;BME280;37954;51.980;5.850;2023-03-04T02:08:04;102243.69;;;7.01;67.04
51603;BME280;37954;51.980;5.850;2023-03-04T02:12:16;102228.28;;;6.95;67.04
51603;BME280;37954;51.980;5.850;2023-03-04T02:16:30;102202.38;;;6.79;67.28
51603;BME280;37954;51.980;5.850;2023-03-04T02:21:02;102218.13;;;6.90;67.29
51603;BME280;37954;51.980;5.850;2023-03-04T02:25:21;102220.28;;;6.87;67.10
51603;BME280;37954;51.980;5.850;2023-03-04T02:29:35;102226.13;;;6.90;66.59
51603;BME280;37954;51.980;5.850;2023-03-04T02:33:47;102225.63;;;6.87;66.58
51603;BME280;37954;51.980;5.850;2023-03-04T02:37:58;102221.78;;;6.89;66.39
51603;BME280;37954;51.980;5.850;2023-03-04T02:42:10;102213.09;;;6.87;66.46
51603;BME280;37954;51.980;5.850;2023-03-04T02:46:22;102216.44;;;6.89;66.22
51603;BME280;37954;51.980;5.850;2023-03-04T02:50:38;102204.41;;;6.93;66.30
51603;BME280;37954;51.980;5.850;2023-03-04T02:54:52;102200.75;;;6.94;66.68
51603;BME280;37954;51.980;5.850;2023-03-04T02:59:04;102204.41;;;6.93;66.33
51603;BME280;37954;51.980;5.850;2023-03-04T03:03:15;102194.41;;;6.87;66.55
51603;BME280;37954;51.980;5.850;2023-03-04T03:07:27;102180.53;;;6.84;66.41
51603;BME280;37954;51.980;5.850;2023-03-04T03:11:39;102182.56;;;6.90;66.66
51603;BME280;37954;51.980;5.850;2023-03-04T03:15:52;102186.38;;;6.95;66.77
51603;BME280;37954;51.980;5.850;2023-03-04T03:20:08;102181.56;;;6.99;66.54
51603;BME280;37954;51.980;5.850;2023-03-04T03:24:20;102180.56;;;7.00;66.41
51603;BME280;37954;51.980;5.850;2023-03-04T03:28:32;102168.19;;;6.99;66.42
51603;BME280;37954;51.980;5.850;2023-03-04T03:32:44;102161.19;;;6.98;66.52
51603;BME280;37954;51.980;5.850;2023-03-04T03:36:55;102166.88;;;7.03;66.66
51603;BME280;37954;51.980;5.850;2023-03-04T03:41:07;102148.00;;;6.88;66.67
51603;BME280;37954;51.980;5.850;2023-03-04T03:45:18;102162.34;;;6.87;67.20
51603;BME280;37954;51.980;5.850;2023-03-04T03:49:30;102151.47;;;6.73;67.38
51603;BME280;37954;51.980;5.850;2023-03-04T03:53:42;102170.84;;;6.83;67.68
51603;BME280;37954;51.980;5.850;2023-03-04T03:57:53;102185.41;;;6.88;67.93
51603;BME280;37954;51.980;5.850;2023-03-04T04:02:05;102134.41;;;6.57;67.57
51603;BME280;37954;51.980;5.850;2023-03-04T04:06:17;102159.31;;;6.74;67.84
51603;BME280;37954;51.980;5.850;2023-03-04T04:10:29;102168.34;;;6.81;68.00
51603;BME280;37954;51.980;5.850;2023-03-04T04:14:40;102164.19;;;6.87;67.65
51603;BME280;37954;51.980;5.850;2023-03-04T04:18:52;102179.72;;;6.91;67.83
51603;BME280;37954;51.980;5.850;2023-03-04T04:23:04;102176.38;;;6.89;68.13
51603;BME280;37954;51.980;5.850;2023-03-04T04:27:16;102157.50;;;6.75;68.58
51603;BME280;37954;51.980;5.850;2023-03-04T04:31:27;102163.16;;;6.80;67.83
51603;BME280;37954;51.980;5.850;2023-03-04T04:35:39;102152.13;;;6.67;68.07
51603;BME280;37954;51.980;5.850;2023-03-04T04:39:51;102152.94;;;6.67;68.85
51603;BME280;37954;51.980;5.850;2023-03-04T04:44:03;102153.47;;;6.71;69.27
51603;BME280;37954;51.980;5.850;2023-03-04T04:48:15;102160.16;;;6.75;68.98
51603;BME280;37954;51.980;5.850;2023-03-04T04:52:27;102160.47;;;6.72;69.32
51603;BME280;37954;51.980;5.850;2023-03-04T04:56:38;102185.19;;;6.82;68.92
51603;BME280;37954;51.980;5.850;2023-03-04T05:00:50;102183.84;;;6.78;68.83
51603;BME280;37954;51.980;5.850;2023-03-04T05:05:06;102184.03;;;6.84;69.15
51603;BME280;37954;51.980;5.850;2023-03-04T05:09:18;102175.50;;;6.73;69.25
51603;BME280;37954;51.980;5.850;2023-03-04T05:13:31;102148.91;;;6.55;69.59
51603;BME280;37954;51.980;5.850;2023-03-04T05:17:43;102162.28;;;6.63;69.76
51603;BME280;37954;51.980;5.850;2023-03-04T05:21:55;102168.44;;;6.63;69.81
51603;BME280;37954;51.980;5.850;2023-03-04T05:26:07;102165.78;;;6.55;69.67
51603;BME280;37954;51.980;5.850;2023-03-04T05:30:21;102152.91;;;6.51;69.79
51603;BME280;37954;51.980;5.850;2023-03-04T05:34:33;102176.78;;;6.60;69.95
51603;BME280;37954;51.980;5.850;2023-03-04T05:38:44;102174.47;;;6.66;69.85
51603;BME280;37954;51.980;5.850;2023-03-04T05:42:56;102173.78;;;6.63;70.29
51603;BME280;37954;51.980;5.850;2023-03-04T05:47:08;102170.44;;;6.61;70.61
51603;BME280;37954;51.980;5.850;2023-03-04T05:51:20;102189.44;;;6.58;71.44
51603;BME280;37954;51.980;5.850;2023-03-04T05:55:32;102190.13;;;6.60;71.41
51603;BME280;37954;51.980;5.850;2023-03-04T05:59:43;102183.78;;;6.53;71.45
51603;BME280;37954;51.980;5.850;2023-03-04T06:03:55;102163.56;;;6.51;71.46
51603;BME280;37954;51.980;5.850;2023-03-04T06:08:07;102183.63;;;6.63;71.78
51603;BME280;37954;51.980;5.850;2023-03-04T06:12:19;102175.63;;;6.63;71.40
51603;BME280;37954;51.980;5.850;2023-03-04T06:16:31;102185.00;;;6.67;71.63
51603;BME280;37954;51.980;5.850;2023-03-04T06:20:43;102164.78;;;6.56;71.25
51603;BME280;37954;51.980;5.850;2023-03-04T06:24:55;102165.63;;;6.57;71.40
51603;BME280;37954;51.980;5.850;2023-03-04T06:29:07;102185.50;;;6.71;71.39
51603;BME280;37954;51.980;5.850;2023-03-04T06:33:19;102185.34;;;6.72;71.54
51603;BME280;37954;51.980;5.850;2023-03-04T06:37:31;102177.97;;;6.66;71.57
51603;BME280;37954;51.980;5.850;2023-03-04T06:41:43;102187.16;;;6.63;71.66
51603;BME280;37954;51.980;5.850;2023-03-04T06:45:54;102187.66;;;6.67;72.18
51603;BME280;37954;51.980;5.850;2023-03-04T06:50:06;102180.28;;;6.61;72.19
51603;BME280;37954;51.980;5.850;2023-03-04T06:54:18;102196.03;;;6.72;72.32
51603;BME280;37954;51.980;5.850;2023-03-04T06:58:30;102204.72;;;6.74;72.37
51603;BME280;37954;51.980;5.850;2023-03-04T07:02:42;102195.50;;;6.69;72.11
51603;BME280;37954;51.980;5.850;2023-03-04T07:06:53;102199.34;;;6.66;72.30
51603;BME280;37954;51.980;5.850;2023-03-04T07:11:06;102218.25;;;6.81;72.32
51603;BME280;37954;51.980;5.850;2023-03-04T07:15:18;102198.03;;;6.70;72.23
51603;BME280;37954;51.980;5.850;2023-03-04T07:19:29;102203.19;;;6.72;72.77
51603;BME280;37954;51.980;5.850;2023-03-04T07:23:41;102205.41;;;6.84;73.08
51603;BME280;37954;51.980;5.850;2023-03-04T07:27:53;102204.47;;;7.10;73.08
51603;BME280;37954;51.980;5.850;2023-03-04T07:32:09;102224.75;;;7.61;72.93
51603;BME280;37954;51.980;5.850;2023-03-04T07:36:21;102188.47;;;7.42;72.54
51603;BME280;37954;51.980;5.850;2023-03-04T07:40:32;102199.34;;;7.41;72.54
51603;BME280;37954;51.980;5.850;2023-03-04T07:44:44;102213.38;;;7.43;72.56
51603;BME280;37954;51.980;5.850;2023-03-04T07:48:56;102213.84;;;7.71;72.51
51603;BME280;37954;51.980;5.850;2023-03-04T07:53:07;102215.34;;;7.81;72.82
51603;BME280;37954;51.980;5.850;2023-03-04T07:57:19;102214.47;;;8.13;72.78
51603;BME280;37954;51.980;5.850;2023-03-04T08:01:36;102233.34;;;8.44;72.76
51603;BME280;37954;51.980;5.850;2023-03-04T08:05:48;102222.28;;;8.39;72.04
51603;BME280;37954;51.980;5.850;2023-03-04T08:09:59;102205.13;;;8.09;72.04
51603;BME280;37954;51.980;5.850;2023-03-04T08:14:12;102209.47;;;8.02;72.31
51603;BME280;37954;51.980;5.850;2023-03-04T08:18:24;102211.97;;;8.03;72.38
51603;BME280;37954;51.980;5.850;2023-03-04T08:22:35;102190.09;;;7.84;72.59
51603;BME280;37954;51.980;5.850;2023-03-04T08:26:48;102233.38;;;8.03;73.00
51603;BME280;37954;51.980;5.850;2023-03-04T08:31:00;102230.38;;;8.07;73.25
51603;BME280;37954;51.980;5.850;2023-03-04T08:35:12;102233.53;;;8.18;73.22
51603;BME280;37954;51.980;5.850;2023-03-04T08:39:24;102234.34;;;8.35;73.08
51603;BME280;37954;51.980;5.850;2023-03-04T08:43:35;102208.34;;;8.52;72.89
51603;BME280;37954;51.980;5.850;2023-03-04T08:47:47;102203.97;;;8.59;72.68
51603;BME280;37954;51.980;5.850;2023-03-04T08:51:59;102224.53;;;8.66;72.65
51603;BME280;37954;51.980;5.850;2023-03-04T08:56:11;102221.44;;;8.47;73.18
51603;BME280;37954;51.980;5.850;2023-03-04T09:00:23;102230.47;;;8.46;73.72
51603;BME280;37954;51.980;5.850;2023-03-04T09:04:35;102236.50;;;8.48;73.56
51603;BME280;37954;51.980;5.850;2023-03-04T09:08:47;102241.84;;;8.48;73.98
51603;BME280;37954;51.980;5.850;2023-03-04T09:12:58;102231.81;;;8.42;74.11
51603;BME280;37954;51.980;5.850;2023-03-04T09:17:11;102220.13;;;8.18;74.49
51603;BME280;37954;51.980;5.850;2023-03-04T09:21:23;102205.78;;;8.11;74.83
51603;BME280;37954;51.980;5.850;2023-03-04T09:25:36;102231.50;;;8.36;75.18
51603;BME280;37954;51.980;5.850;2023-03-04T09:29:48;102224.13;;;8.47;75.33
51603;BME280;37954;51.980;5.850;2023-03-04T09:34:00;102204.25;;;8.25;75.60
51603;BME280;37954;51.980;5.850;2023-03-04T09:38:12;102218.28;;;8.27;75.80
51603;BME280;37954;51.980;5.850;2023-03-04T09:42:27;102227.31;;;8.18;76.57
51603;BME280;37954;51.980;5.850;2023-03-04T09:46:42;102220.50;;;7.99;78.19
51603;BME280;37954;51.980;5.850;2023-03-04T09:51:15;102229.81;;;8.35;79.01
51603;BME280;37954;51.980;5.850;2023-03-04T09:55:41;102205.31;;;8.63;79.11
51603;BME280;37954;51.980;5.850;2023-03-04T10:13:14;102202.53;;;9.70;76.97
51603;BME280;37954;51.980;5.850;2023-03-04T10:17:39;102191.94;;;9.77;75.80
51603;BME280;37954;51.980;5.850;2023-03-04T10:21:54;102198.34;;;9.91;75.14
51603;BME280;37954;51.980;5.850;2023-03-04T10:26:14;102192.41;;;9.81;74.83
51603;BME280;37954;51.980;5.850;2023-03-04T10:30:42;102194.31;;;9.72;74.24
51603;BME280;37954;51.980;5.850;2023-03-04T10:34:56;102182.50;;;9.43;73.98
51603;BME280;37954;51.980;5.850;2023-03-04T10:39:26;102193.00;;;9.30;74.74
51603;BME280;37954;51.980;5.850;2023-03-04T10:43:38;102159.00;;;9.98;75.36
51603;BME280;37954;51.980;5.850;2023-03-04T10:47:54;102173.28;;;10.28;73.26
51603;BME280;37954;51.980;5.850;2023-03-04T10:52:22;102197.06;;;10.60;72.35
51603;BME280;37954;51.980;5.850;2023-03-04T10:56:39;102176.44;;;10.46;72.60
51603;BME280;37954;51.980;5.850;2023-03-04T11:01:09;102154.75;;;10.18;72.43
51603;BME280;37954;51.980;5.850;2023-03-04T11:05:31;102145.19;;;10.60;72.16
51603;BME280;37954;51.980;5.850;2023-03-04T11:09:44;102154.00;;;10.54;71.40
51603;BME280;37954;51.980;5.850;2023-03-04T11:14:05;102160.03;;;10.41;71.20
51603;BME280;37954;51.980;5.850;2023-03-04T11:18:27;102144.78;;;10.27;71.31
51603;BME280;37954;51.980;5.850;2023-03-04T11:38:23;102159.97;;;11.06;72.83
51603;BME280;37954;51.980;5.850;2023-03-04T11:43:06;102150.22;;;11.48;72.11
51603;BME280;37954;51.980;5.850;2023-03-04T11:47:40;102129.88;;;11.39;70.34
51603;BME280;37954;51.980;5.850;2023-03-04T11:57:08;102139.22;;;11.00;69.59
51603;BME280;37954;51.980;5.850;2023-03-04T12:25:55;102095.94;;;10.95;72.30
51603;BME280;37954;51.980;5.850;2023-03-04T12:39:50;102071.84;;;11.08;68.73
51603;BME280;37954;51.980;5.850;2023-03-04T12:48:34;102080.31;;;10.12;68.68
51603;BME280;37954;51.980;5.850;2023-03-04T12:57:45;102056.31;;;9.37;69.38
51603;BME280;37954;51.980;5.850;2023-03-04T13:06:46;102069.66;;;9.89;70.11
51603;BME280;37954;51.980;5.850;2023-03-04T13:15:37;102050.75;;;10.63;69.36
51603;BME280;37954;51.980;5.850;2023-03-04T13:19:51;102053.31;;;10.71;67.11
51603;BME280;37954;51.980;5.850;2023-03-04T13:40:35;102011.00;;;10.58;61.06
51603;BME280;37954;51.980;5.850;2023-03-04T13:50:26;102037.28;;;10.56;60.53
51603;BME280;37954;51.980;5.850;2023-03-04T14:26:28;102031.03;;;9.69;60.84
51603;BME280;37954;51.980;5.850;2023-03-04T14:31:54;102047.38;;;9.74;61.11
51603;BME280;37954;51.980;5.850;2023-03-04T14:36:25;102033.97;;;9.74;61.26
51603;BME280;37954;51.980;5.850;2023-03-04T14:41:06;102041.56;;;9.56;61.51
51603;BME280;37954;51.980;5.850;2023-03-04T14:45:29;102027.31;;;9.40;61.77
51603;BME280;37954;51.980;5.850;2023-03-04T14:49:41;101994.56;;;9.16;61.47
51603;BME280;37954;51.980;5.850;2023-03-04T14:53:55;101986.22;;;9.11;60.92
51603;BME280;37954;51.980;5.850;2023-03-04T14:58:28;102025.56;;;9.48;60.50
51603;BME280;37954;51.980;5.850;2023-03-04T15:07:38;101998.06;;;9.60;59.67
51603;BME280;37954;51.980;5.850;2023-03-04T15:12:03;102001.56;;;9.75;59.10
51603;BME280;37954;51.980;5.850;2023-03-04T15:16:19;102008.91;;;9.82;58.16
51603;BME280;37954;51.980;5.850;2023-03-04T15:20:33;101999.47;;;9.86;58.00
51603;BME280;37954;51.980;5.850;2023-03-04T15:24:45;101999.72;;;9.76;57.73
51603;BME280;37954;51.980;5.850;2023-03-04T15:28:57;102001.22;;;9.78;57.94
51603;BME280;37954;51.980;5.850;2023-03-04T15:33:12;101996.88;;;9.77;58.07
51603;BME280;37954;51.980;5.850;2023-03-04T15:37:26;101998.63;;;9.56;57.75
51603;BME280;37954;51.980;5.850;2023-03-04T15:41:38;101996.88;;;9.48;58.13
51603;BME280;37954;51.980;5.850;2023-03-04T15:45:50;101984.84;;;9.44;58.36
51603;BME280;37954;51.980;5.850;2023-03-04T15:50:02;102001.88;;;9.36;59.42
51603;BME280;37954;51.980;5.850;2023-03-04T15:54:14;102001.13;;;9.28;60.10
51603;BME280;37954;51.980;5.850;2023-03-04T15:58:27;102001.13;;;9.13;61.00
51603;BME280;37954;51.980;5.850;2023-03-04T16:02:39;101998.13;;;9.08;61.61
51603;BME280;37954;51.980;5.850;2023-03-04T16:06:51;101998.97;;;9.08;61.43
51603;BME280;37954;51.980;5.850;2023-03-04T16:11:02;102001.47;;;9.10;61.64
51603;BME280;37954;51.980;5.850;2023-03-04T16:15:17;102002.38;;;9.02;61.45
51603;BME280;37954;51.980;5.850;2023-03-04T16:19:30;102006.72;;;9.03;61.37
51603;BME280;37954;51.980;5.850;2023-03-04T16:23:43;101992.88;;;9.00;61.29
51603;BME280;37954;51.980;5.850;2023-03-04T16:27:56;101988.06;;;8.95;60.93
51603;BME280;37954;51.980;5.850;2023-03-04T16:32:09;101973.81;;;8.95;60.67
51603;BME280;37954;51.980;5.850;2023-03-04T16:36:23;101989.25;;;8.93;60.58
51603;BME280;37954;51.980;5.850;2023-03-04T16:40:35;101981.00;;;8.80;60.01
51603;BME280;37954;51.980;5.850;2023-03-04T16:44:48;101987.31;;;8.64;60.55
51603;BME280;37954;51.980;5.850;2023-03-04T16:48:59;101992.50;;;8.43;61.39
51603;BME280;37954;51.980;5.850;2023-03-04T16:53:22;102000.19;;;8.46;61.75
51603;BME280;37954;51.980;5.850;2023-03-04T16:57:35;102002.41;;;8.34;62.16
51603;BME280;37954;51.980;5.850;2023-03-04T17:01:47;102009.66;;;8.25;62.71
51603;BME280;37954;51.980;5.850;2023-03-04T17:05:59;101991.44;;;8.21;63.09
51603;BME280;37954;51.980;5.850;2023-03-04T17:10:15;102001.31;;;8.20;63.38
51603;BME280;37954;51.980;5.850;2023-03-04T17:14:26;101999.22;;;8.08;62.94
51603;BME280;37954;51.980;5.850;2023-03-04T17:18:38;102003.91;;;8.06;62.47
51603;BME280;37954;51.980;5.850;2023-03-04T17:22:51;102005.56;;;8.07;62.50
51603;BME280;37954;51.980;5.850;2023-03-04T17:27:03;101998.56;;;8.06;62.68
51603;BME280;37954;51.980;5.850;2023-03-04T17:31:17;102000.06;;;8.00;62.87
51603;BME280;37954;51.980;5.850;2023-03-04T17:35:29;102007.28;;;7.99;62.91
51603;BME280;37954;51.980;5.850;2023-03-04T17:39:45;101995.97;;;7.89;63.24
51603;BME280;37954;51.980;5.850;2023-03-04T17:43:56;101999.47;;;7.90;63.57
51603;BME280;37954;51.980;5.850;2023-03-04T17:48:10;102011.13;;;7.97;63.62
51603;BME280;37954;51.980;5.850;2023-03-04T17:52:25;102005.78;;;7.97;63.57
51603;BME280;37954;51.980;5.850;2023-03-04T17:56:38;102014.19;;;7.94;63.73
51603;BME280;37954;51.980;5.850;2023-03-04T18:00:52;102007.53;;;7.82;64.29
51603;BME280;37954;51.980;5.850;2023-03-04T18:05:06;102020.56;;;7.85;64.28
51603;BME280;37954;51.980;5.850;2023-03-04T18:09:18;102031.78;;;7.80;64.47
51603;BME280;37954;51.980;5.850;2023-03-04T18:13:30;102031.81;;;7.72;64.61
51603;BME280;37954;51.980;5.850;2023-03-04T18:17:41;102020.28;;;7.63;65.30
51603;BME280;37954;51.980;5.850;2023-03-04T18:21:55;102031.88;;;7.56;65.75
51603;BME280;37954;51.980;5.850;2023-03-04T18:26:07;102022.72;;;7.34;66.14
51603;BME280;37954;51.980;5.850;2023-03-04T18:30:19;102032.41;;;7.35;65.98
51603;BME280;37954;51.980;5.850;2023-03-04T18:34:37;102033.41;;;7.34;66.02
51603;BME280;37954;51.980;5.850;2023-03-04T18:38:49;102037.59;;;7.37;66.25
51603;BME280;37954;51.980;5.850;2023-03-04T18:43:04;102026.41;;;7.33;66.05
51603;BME280;37954;51.980;5.850;2023-03-04T18:47:16;102030.75;;;7.34;66.14
51603;BME280;37954;51.980;5.850;2023-03-04T18:51:28;102036.25;;;7.32;66.46
51603;BME280;37954;51.980;5.850;2023-03-04T18:55:40;102021.06;;;7.33;66.62
51603;BME280;37954;51.980;5.850;2023-03-04T18:59:56;102031.09;;;7.31;66.94
51603;BME280;37954;51.980;5.850;2023-03-04T19:04:09;102020.25;;;7.16;66.91
51603;BME280;37954;51.980;5.850;2023-03-04T19:08:21;102029.28;;;7.15;67.65
51603;BME280;37954;51.980;5.850;2023-03-04T19:12:32;102029.28;;;7.15;67.79
51603;BME280;37954;51.980;5.850;2023-03-04T19:16:44;102023.59;;;7.10;68.58
51603;BME280;37954;51.980;5.850;2023-03-04T19:20:58;102024.94;;;7.14;68.27
51603;BME280;37954;51.980;5.850;2023-03-04T19:25:11;102022.41;;;7.13;68.13
51603;BME280;37954;51.980;5.850;2023-03-04T19:29:23;102022.41;;;7.13;68.14
51603;BME280;37954;51.980;5.850;2023-03-04T19:33:35;102020.41;;;7.15;68.35
51603;BME280;37954;51.980;5.850;2023-03-04T19:37:47;102013.06;;;7.17;68.01
51603;BME280;37954;51.980;5.850;2023-03-04T19:41:59;102016.56;;;7.17;68.36
51603;BME280;37954;51.980;5.850;2023-03-04T19:46:11;102019.09;;;7.19;68.20
51603;BME280;37954;51.980;5.850;2023-03-04T19:50:23;102011.41;;;7.24;68.39
51603;BME280;37954;51.980;5.850;2023-03-04T19:54:35;102007.38;;;7.20;68.20
51603;BME280;37954;51.980;5.850;2023-03-04T19:58:47;101995.22;;;7.09;68.14
51603;BME280;37954;51.980;5.850;2023-03-04T20:02:58;101994.06;;;6.95;68.38
51603;BME280;37954;51.980;5.850;2023-03-04T20:07:12;102008.94;;;6.90;68.58
51603;BME280;37954;51.980;5.850;2023-03-04T20:11:24;102006.94;;;6.92;68.32
51603;BME280;37954;51.980;5.850;2023-03-04T20:15:36;102018.09;;;6.95;68.43
51603;BME280;37954;51.980;5.850;2023-03-04T20:19:51;102015.13;;;6.90;68.47
51603;BME280;37954;51.980;5.850;2023-03-04T20:24:03;102003.59;;;6.82;69.34
51603;BME280;37954;51.980;5.850;2023-03-04T20:28:15;102012.28;;;6.84;69.24
51603;BME280;37954;51.980;5.850;2023-03-04T20:32:27;102007.94;;;6.83;68.67
51603;BME280;37954;51.980;5.850;2023-03-04T20:36:39;102017.28;;;6.79;69.03
51603;BME280;37954;51.980;5.850;2023-03-04T20:40:50;102014.13;;;6.75;69.18
51603;BME280;37954;51.980;5.850;2023-03-04T20:45:03;102016.13;;;6.73;69.36
51603;BME280;37954;51.980;5.850;2023-03-04T20:49:17;102008.09;;;6.65;69.74
51603;BME280;37954;51.980;5.850;2023-03-04T20:53:34;102007.25;;;6.64;70.22
51603;BME280;37954;51.980;5.850;2023-03-04T20:57:45;102008.94;;;6.66;69.90
51603;BME280;37954;51.980;5.850;2023-03-04T21:02:00;102022.94;;;6.76;69.50
51603;BME280;37954;51.980;5.850;2023-03-04T21:06:11;102015.97;;;6.75;69.98
51603;BME280;37954;51.980;5.850;2023-03-04T21:10:23;102009.94;;;6.73;70.52
51603;BME280;37954;51.980;5.850;2023-03-04T21:14:35;102001.25;;;6.71;70.92
51603;BME280;37954;51.980;5.850;2023-03-04T21:18:46;101999.91;;;6.67;71.15
51603;BME280;37954;51.980;5.850;2023-03-04T21:22:59;101998.75;;;6.61;71.65
51603;BME280;37954;51.980;5.850;2023-03-04T21:27:11;101998.75;;;6.53;71.52
51603;BME280;37954;51.980;5.850;2023-03-04T21:31:27;101996.06;;;6.45;71.41
51603;BME280;37954;51.980;5.850;2023-03-04T21:35:39;101986.88;;;6.31;71.18
51603;BME280;37954;51.980;5.850;2023-03-04T21:39:51;101991.84;;;6.26;71.70
51603;BME280;37954;51.980;5.850;2023-03-04T21:44:03;101982.69;;;6.20;71.91
51603;BME280;37954;51.980;5.850;2023-03-04T21:48:15;101988.00;;;6.12;72.06
51603;BME280;37954;51.980;5.850;2023-03-04T21:52:26;101979.47;;;6.01;71.81
51603;BME280;37954;51.980;5.850;2023-03-04T21:56:39;101983.09;;;5.91;72.19
51603;BME280;37954;51.980;5.850;2023-03-04T22:00:51;101974.03;;;5.76;71.90
51603;BME280;37954;51.980;5.850;2023-03-04T22:05:03;101970.66;;;5.66;73.05
51603;BME280;37954;51.980;5.850;2023-03-04T22:09:15;101968.78;;;5.58;72.61
51603;BME280;37954;51.980;5.850;2023-03-04T22:13:40;101979.63;;;5.57;73.34
51603;BME280;37954;51.980;5.850;2023-03-04T22:17:52;101967.81;;;5.59;73.38
51603;BME280;37954;51.980;5.850;2023-03-04T22:22:03;101956.66;;;5.64;73.46
51603;BME280;37954;51.980;5.850;2023-03-04T22:26:18;101963.84;;;5.72;73.93
51603;BME280;37954;51.980;5.850;2023-03-04T22:30:31;101956.69;;;5.72;74.25
51603;BME280;37954;51.980;5.850;2023-03-04T22:34:43;101950.34;;;5.73;74.20
51603;BME280;37954;51.980;5.850;2023-03-04T22:38:55;101958.34;;;5.73;74.34
51603;BME280;37954;51.980;5.850;2023-03-04T22:43:07;101957.34;;;5.74;74.55
51603;BME280;37954;51.980;5.850;2023-03-04T22:47:18;101955.38;;;5.76;74.48
51603;BME280;37954;51.980;5.850;2023-03-04T22:51:31;101961.06;;;5.81;74.71
51603;BME280;37954;51.980;5.850;2023-03-04T22:55:43;101950.88;;;5.77;75.13
51603;BME280;37954;51.980;5.850;2023-03-04T22:59:54;101944.38;;;5.71;75.70
51603;BME280;37954;51.980;5.850;2023-03-04T23:04:07;101919.97;;;5.58;75.37
51603;BME280;37954;51.980;5.850;2023-03-04T23:08:19;101939.84;;;5.72;74.99
51603;BME280;37954;51.980;5.850;2023-03-04T23:12:32;101925.84;;;5.62;75.58
51603;BME280;37954;51.980;5.850;2023-03-04T23:16:43;101924.00;;;5.62;75.58
51603;BME280;37954;51.980;5.850;2023-03-04T23:20:57;101920.50;;;5.62;75.62
51603;BME280;37954;51.980;5.850;2023-03-04T23:25:09;101918.50;;;5.64;75.79
51603;BME280;37954;51.980;5.850;2023-03-04T23:29:21;101916.84;;;5.63;75.74
51603;BME280;37954;51.980;5.850;2023-03-04T23:33:33;101910.69;;;5.62;76.58
51603;BME280;37954;51.980;5.850;2023-03-04T23:37:44;101914.19;;;5.63;76.77
51603;BME280;37954;51.980;5.850;2023-03-04T23:41:56;101898.84;;;5.65;76.82
51603;BME280;37954;51.980;5.850;2023-03-04T23:46:08;101907.69;;;5.65;76.75
51603;BME280;37954;51.980;5.850;2023-03-04T23:50:22;101916.88;;;5.71;76.63
51603;BME280;37954;51.980;5.850;2023-03-04T23:54:33;101902.38;;;5.65;76.65
51603;BME280;37954;51.980;5.850;2023-03-04T23:58:46;101897.19;;;5.72;76.40
